Tiempo atmosférico en la estación meteorológica de Arenys De Mar, Barcelona (50 m.)



Fecha
DESCASC
Temp. máxima en grados centígrados (hora)
DESCASC
Temp. mínima en grados centígrados (hora)
DESCASC
Temp. media en grados centígrados
DESCASC
Racha de viento máxima en m/sg (hora)
DESCASC
Velocidad máxima media en intervalos de 10 minutos(hora)
DESCASC
Precipitaciones diarias en mm
DESCASC
Precipitaciones de 00:00 a 06:00 en mm
DESCASC
Precipitaciones de 06:00 a 12:00 en mm
DESCASC
Precipitaciones de 12:00 a 18:00 en mm
DESCASC
Precipitaciones de 18:00 a 24:00 en mm
DESCASC
18-02-2018 14.4 (13:10) 7.6 (21:50) 11 6.94 (13:20) 3.33 (13:50) 0.8 0.8 0 0 0
17-02-2018 12.7 (14:10) 7.6 (07:40) 10.1 3.61 (12:50) 1.39 (03:10) 1.1 0 0 0 1.1
16-02-2018 16.6 (12:00) 7.4 (02:10) 12 3.33 (14:50) 1.11 (12:10) 0 0 0 0 0
15-02-2018 16.1 (11:40) 5.4 (00:00) 10.8 4.17 (02:50) 2.22 (07:20) 0 0 0 0 0
14-02-2018 13 (12:00) 2.9 (00:00) 8 5 (04:30) 2.78 (03:30) 0 0 0 0 0
13-02-2018 10.3 (14:50) 0.3 (00:00) 5.3 13.89 (18:50) 4.72 (18:20) 0.1 0.1 0 0 0
12-02-2018 10.5 (00:30) 1.8 (00:00) 6.1 5 (18:30) 2.22 (18:30) 11.3 0 3.4 4.5 3.4
11-02-2018 15.9 (13:00) 2.7 (00:00) 9.3 7.78 (16:10) 3.33 (13:50) 0 0 0 0 0
10-02-2018 11.9 (13:50) 3.2 (00:00) 7.5 7.5 (06:50) 3.61 (06:20) 0 0 0 0 0
09-02-2018 10.9 (14:20) 0 (00:00) 5.4 6.39 (15:50) 3.33 (15:30) 0 0 0 0 0
08-02-2018 6.8 (17:10) 1.8 (00:00) 4.3 5.83 (09:50) 3.06 (09:50) 3.3 0 3.3 0 0
07-02-2018 11.8 (14:00) 3.4 (00:00) 7.6 6.11 (16:20) 2.5 (19:50) 0 0 0 0 0
06-02-2018 13.5 (11:30) 6 (00:00) 9.8 8.06 (08:50) 4.17 (05:00) 7.4 7.4 0 0 0
05-02-2018 12.3 (13:40) 5.5 (00:00) 8.9 8.33 (00:20) 4.17 (00:40) 28.2 11.9 10.7 1.3 4.3
04-02-2018 10.3 (12:00) 3.9 (00:00) 7.1 10.28 (23:30) 5 (21:10) 8.6 0 0 0.3 8.3
03-02-2018 14.4 (13:50) 1.7 (00:00) 8 8.06 (16:50) 3.06 (16:50) 0 0 0 0 0
02-02-2018 11.7 (15:10) 2 (00:00) 6.8 6.39 (00:30) 2.78 (01:50) 0 0 0 0 0
01-02-2018 11.2 (12:20) 4.7 (00:00) 7.9 9.72 (22:30) 3.33 (22:30) 3.4 0 0 1.5 1.9
31-01-2018 16.1 (11:40) 5.4 (00:00) 10.8 10.28 (15:20) 4.44 (15:00) 0 0 0 0 0
30-01-2018 14.8 (10:50) 5.1 (00:00) 10 3.61 (13:40) 1.67 (08:50) 0 0 0 0 0
29-01-2018 15.2 (14:30) 5.2 (00:00) 10.2 5.83 (15:10) 2.5 (15:30) 0 0 0 0 0
28-01-2018 17.9 (12:30) 7.1 (00:00) 12.5 10.83 (01:10) 5 (01:30) 0 0 0 0 0
27-01-2018 14.7 (11:50) 5.2 (00:00) 9.9 11.67 (19:10) 5.83 (20:30) 0.1 0.1 0 0 0
26-01-2018 -- (--) -- (--) -- -- (--) -- (--) -- 0.1 -- 1.6 0.8
25-01-2018 15.2 (12:50) 8.9 (00:00) 12 6.67 (13:30) 2.5 (11:30) 0 0 0 0 0
24-01-2018 18.1 (12:00) 7.4 (00:00) 12.8 5.28 (15:50) 2.5 (16:40) 0 0 0 0 0
23-01-2018 18.2 (11:50) 8.3 (00:00) 13.3 4.17 (13:00) 1.94 (07:20) 0 0 0 0 0
22-01-2018 18.8 (12:30) 9.7 (00:00) 14.2 6.39 (03:20) 2.78 (08:20) 0 0 0 0 0

Gráficas

Temp. máximas Temp. mínimas Temp. medias Precipitaciones Rachas de viento máximas Velocidades máximas media en intervalos de 10 minutos

Datos horarios

Fecha y hora oficial Temperatura (ºC) Velocidad del viento (km/h) Dirección del viento Racha (km/h) Dirección de racha Precipitación (mm) Presión (hPa) Tendencia (hPa) Humedad (%)
2018-02-20 23:00:00 7.5 6 Norte 12 Noroeste 0 -- -- 90
2018-02-20 22:00:00 7.5 3 Norte 11 Norte 0 -- -- 90
2018-02-20 21:00:00 8 4 Norte 11 Sudoeste 0 -- -- 88
2018-02-20 20:00:00 8.5 3 Norte 7 Oeste 0 -- -- 87
2018-02-20 19:00:00 9.7 2 Noroeste 13 Norte 0 -- -- 84
2018-02-20 18:00:00 11.3 2 Sur 10 Sur 0 -- -- 75
2018-02-20 17:00:00 13.4 2 Sudeste 13 Sudoeste 0 -- -- 64
2018-02-20 16:00:00 13.5 5 Nordeste 12 Nordeste 0 -- -- 64
2018-02-20 15:00:00 12 5 Sur 13 Sur 0 -- -- 69
2018-02-20 14:00:00 14.5 3 Este 12 Nordeste 0 -- -- 60
2018-02-20 13:00:00 12.9 2 Sudeste 9 Sudeste 0 -- -- 65
2018-02-20 12:00:00 12.2 4 Sur 10 Sur 0 -- -- 67
2018-02-20 11:00:00 11.9 4 Sur 8 Sur 0 -- -- 69
2018-02-20 10:00:00 11.1 0 Calma 3 Sudoeste 0 -- -- 73
2018-02-20 09:00:00 9.5 0 Calma 6 Norte 0 -- -- 84
2018-02-20 08:00:00 8.1 2 Norte 8 Norte 0 -- -- 87
2018-02-20 07:00:00 8.3 5 Norte 8 Norte 0 -- -- 88
2018-02-20 06:00:00 8.2 0 Calma 5 Norte 0 -- -- 88
2018-02-20 05:00:00 8.3 0 Calma 5 Oeste 0 -- -- 87
2018-02-20 04:00:00 8.7 0 Calma 10 Oeste 0 -- -- 85
2018-02-20 03:00:00 8.9 0 Calma 7 Noroeste 0 -- -- 86
2018-02-20 02:00:00 9 0 Calma 6 Sudoeste 0 -- -- 83
2018-02-20 01:00:00 9.6 4 Norte 8 Norte 0 -- -- 79
2018-02-20 00:00:00 9.2 3 Oeste 7 Sudoeste 0 -- -- 85
2018-02-19 23:00:00 7.9 3 Norte 6 Norte 0 -- -- 87
2018-02-19 22:00:00 8 3 Norte 7 Norte 0 -- -- 86
2018-02-19 21:00:00 8.5 2 Norte 5 Oeste 0 -- -- 83
2018-02-19 20:00:00 8.8 0 Calma 4 Oeste 0 -- -- 81
2018-02-19 19:00:00 9.5 2 Oeste 8 Sur 0 -- -- 76
2018-02-19 18:00:00 10.1 4 Sur 9 Sur 0 -- -- 72
2018-02-19 17:00:00 10.9 4 Sur 17 Sudoeste 0 -- -- 67
2018-02-19 16:00:00 11.3 5 Sur 14 Sudeste 0 -- -- 62
2018-02-19 15:00:00 11.4 6 Sur 13 Sur 0 -- -- 65
2018-02-19 14:00:00 10.8 4 Sur 13 Sur 0 -- -- 68
2018-02-19 13:00:00 11.6 3 Sudeste 10 Sudeste 0 -- -- 64
2018-02-19 12:00:00 11.8 3 Este 9 Nordeste 0 -- -- 63
2018-02-19 11:00:00 11.3 3 Sur 6 Sur 0 -- -- 69
2018-02-19 10:00:00 10.4 0 Calma 4 Norte 0 -- -- 79
2018-02-19 09:00:00 8.9 0 Calma 10 Norte 0 -- -- 86
2018-02-19 08:00:00 7.6 0 Calma 10 Norte 0 -- -- 89
2018-02-19 07:00:00 7.3 6 Norte 13 Norte 0 -- -- 89
2018-02-19 06:00:00 6.7 8 Norte 14 Norte 0 -- -- 89
2018-02-19 05:00:00 7.2 8 Norte 13 Norte 0 -- -- 89
2018-02-19 04:00:00 7.7 6 Norte 12 Norte 0 -- -- 88
2018-02-19 03:00:00 7.8 5 Norte 12 Norte 0 -- -- 88
2018-02-19 02:00:00 7.7 5 Norte 11 Norte 0 -- -- 89
2018-02-19 01:00:00 8 3 Norte 8 Norte 0 -- -- 88
2018-02-19 00:00:00 7.9 4 Norte 9 Noroeste 0 -- -- 87
2018-02-18 23:00:00 7.7 4 Norte 9 Nordeste 0 -- -- 88
2018-02-18 22:00:00 7.7 2 Noroeste 8 Norte 0 -- -- 87
2018-02-18 21:00:00 8.2 2 Norte 5 Norte 0 -- -- 86
2018-02-18 20:00:00 9.2 0 Calma 5 Oeste 0 -- -- 81
2018-02-18 19:00:00 9.6 0 Calma 6 Sudoeste 0 -- -- 77
2018-02-18 18:00:00 10.5 3 Sur 12 Sudoeste 0 -- -- 70
2018-02-18 17:00:00 13 4 Sudoeste 14 Sur 0 -- -- 58
2018-02-18 16:00:00 12.4 8 Sur 18 Sudoeste 0 -- -- 57
2018-02-18 15:00:00 12.9 8 Sur 24 Sur 0 -- -- 54
2018-02-18 14:00:00 13.5 12 Sur 25 Sur 0 -- -- 53
2018-02-18 13:00:00 13.4 11 Sur 22 Sudoeste 0 -- -- 55
2018-02-18 12:00:00 12.8 8 Sudoeste 19 Sudoeste 0 -- -- 55
2018-02-18 11:00:00 12.9 3 Sudoeste 9 Sudoeste 0 -- -- 64
2018-02-18 10:00:00 9.6 3 Norte 7 Norte 0 -- -- 91
2018-02-18 09:00:00 8.7 3 Norte 6 Norte 0 -- -- 91
2018-02-18 08:00:00 8.8 2 Norte 5 Norte 0 -- -- 91
2018-02-18 07:00:00 8.6 0 Calma 5 Noroeste 0 -- -- 91
2018-02-18 06:00:00 9.1 2 Norte 7 Nordeste 0 -- -- 91
2018-02-18 05:00:00 9.7 0 Calma 4 Nordeste 0 -- -- 91
2018-02-18 04:00:00 9.6 0 Calma 7 Sur 0 -- -- 91
2018-02-18 03:00:00 9.8 6 Sur 12 Sudoeste 0.1 -- -- 91
2018-02-18 02:00:00 9.4 3 Sudoeste 11 Oeste 0.6 -- -- 91
2018-02-18 01:00:00 9.6 0 Calma 6 Noroeste 0.1 -- -- 91
2018-02-18 00:00:00 9.5 4 Norte 9 Norte 0.1 -- -- 91
2018-02-17 23:00:00 9.8 3 Norte 9 Norte 0.1 -- -- 91
2018-02-17 22:00:00 10.1 4 Oeste 8 Sudoeste 0.7 -- -- 90
2018-02-17 21:00:00 10.4 0 Calma 5 Sudoeste 0.2 -- -- 89
2018-02-17 20:00:00 10.8 0 Calma 4 Sudoeste 0 -- -- 86
2018-02-17 19:00:00 11 0 Calma 4 Sur 0 -- -- 85
2018-02-17 18:00:00 11.6 2 Sur 8 Sur 0 -- -- 81
2018-02-17 17:00:00 12.1 0 Calma 5 Sudeste 0 -- -- 78
2018-02-17 16:00:00 12 0 Calma 9 Este 0 -- -- 82
2018-02-17 15:00:00 12.1 0 Calma 11 Norte 0 -- -- 79
2018-02-17 14:00:00 12.5 0 Calma 10 Norte 0 -- -- 78
2018-02-17 13:00:00 11.2 3 Nordeste 13 Nordeste 0 -- -- 82
2018-02-17 12:00:00 11.3 3 Norte 11 Norte 0 -- -- 81
2018-02-17 11:00:00 11.4 2 Nordeste 12 Este 0 -- -- 84
2018-02-17 10:00:00 10.4 0 Calma 5 Norte 0 -- -- 91
2018-02-17 09:00:00 9 2 Norte 7 Norte 0 -- -- 91
2018-02-17 08:00:00 8.2 2 Norte 6 Nordeste 0 -- -- 91
2018-02-17 07:00:00 8 0 Calma 4 Norte 0 -- -- 91
2018-02-17 06:00:00 8.4 0 Calma 5 Sudoeste 0 -- -- 91
2018-02-17 05:00:00 8.5 0 Calma 6 Norte 0 -- -- 91
2018-02-17 04:00:00 8.9 3 Norte 10 Norte 0 -- -- 91
2018-02-17 03:00:00 9.7 4 Norte 10 Oeste 0 -- -- 91
2018-02-17 02:00:00 10.6 3 Sudoeste 8 Sudoeste 0 -- -- 91
2018-02-17 01:00:00 10.7 0 Calma 5 Oeste 0 -- -- 91
2018-02-17 00:00:00 10.6 0 Calma 5 Oeste 0 -- -- 91
2018-02-16 23:00:00 10.7 0 Calma 5 Nordeste 0 -- -- 91
2018-02-16 22:00:00 10.4 0 Calma 5 Oeste 0 -- -- 91
2018-02-16 21:00:00 10.5 0 Calma 4 Noroeste 0 -- -- 90
2018-02-16 20:00:00 10.7 0 Calma 3 Norte 0 -- -- 89
2018-02-16 19:00:00 11.2 2 Sudoeste 6 Sur 0 -- -- 87
2018-02-16 18:00:00 12 0 Calma 5 Sur 0 -- -- 82
2018-02-16 17:00:00 12.5 3 Sur 8 Sur 0 -- -- 77
2018-02-16 16:00:00 13.9 2 Sudeste 10 Sur 0 -- -- 67
2018-02-16 15:00:00 14 3 Este 12 Nordeste 0 -- -- 65
2018-02-16 14:00:00 14.4 2 Este 8 Este 0 -- -- 59
2018-02-16 13:00:00 13.3 0 Calma 11 Sudoeste 0 -- -- 65
2018-02-16 12:00:00 16.5 3 Sudeste 9 Sur 0 -- -- 56
2018-02-16 11:00:00 13.4 0 Calma 5 Nordeste 0 -- -- 73
2018-02-16 10:00:00 12.5 0 Calma 3 Norte 0 -- -- 79
2018-02-16 09:00:00 10.1 0 Calma 5 Norte 0 -- -- 91
2018-02-16 08:00:00 8.8 0 Calma 4 Norte 0 -- -- 91
2018-02-16 07:00:00 8.5 0 Calma 5 Norte 0 -- -- 91
2018-02-16 06:00:00 8 0 Calma 5 Nordeste 0 -- -- 91
2018-02-16 05:00:00 7.9 2 Norte 5 Norte 0 -- -- 91
2018-02-16 04:00:00 7.9 0 Calma 6 Sudoeste 0 -- -- 91
2018-02-16 03:00:00 8.4 0 Calma 6 Sudoeste 0 -- -- 91
2018-02-16 02:00:00 7.7 0 Calma 7 Norte 0 -- -- 91
2018-02-16 01:00:00 7.7 2 Norte 6 Norte 0 -- -- 91
2018-02-16 00:00:00 8.1 0 Calma 7 Norte 0 -- -- 91
2018-02-15 23:00:00 7.6 0 Calma 7 Norte 0 -- -- 90
2018-02-15 22:00:00 7.9 0 Calma 7 Nordeste 0 -- -- 90
2018-02-15 21:00:00 8 3 Norte 12 Nordeste 0 -- -- 89
2018-02-15 20:00:00 8.3 3 Norte 8 Norte 0 -- -- 87
2018-02-15 19:00:00 9.3 0 Calma 7 Sudoeste 0 -- -- 82
2018-02-15 18:00:00 10.5 0 Calma 8 Sur 0 -- -- 70
2018-02-15 17:00:00 13.1 4 Sur 10 Sudeste 0 -- -- 64
2018-02-15 16:00:00 12.8 3 Sudeste 10 Sur 0 -- -- 58
2018-02-15 15:00:00 13.8 0 Calma 11 Nordeste 0 -- -- 53
2018-02-15 14:00:00 13.8 5 Sur 12 Sur 0 -- -- 52
2018-02-15 13:00:00 13.9 4 Sudeste 11 Nordeste 0 -- -- 51
2018-02-15 12:00:00 15 3 Este 10 Nordeste 0 -- -- 51
2018-02-15 11:00:00 15.2 0 Calma 11 Sudoeste 0 -- -- 51
2018-02-15 10:00:00 14.6 0 Calma 6 Norte 0 -- -- 48
2018-02-15 09:00:00 7.4 4 Norte 8 Norte 0 -- -- 82
2018-02-15 08:00:00 6.2 4 Norte 14 Norte 0 -- -- 85
2018-02-15 07:00:00 5.7 6 Norte 12 Norte 0 -- -- 89
2018-02-15 06:00:00 5.5 0 Calma 7 Norte 0 -- -- 88
2018-02-15 05:00:00 5.8 0 Calma 8 Nordeste 0 -- -- 86
2018-02-15 04:00:00 7.7 3 Noroeste 14 Sudoeste 0 -- -- 76
2018-02-15 03:00:00 7.8 6 Sudoeste 15 Norte 0 -- -- 83
2018-02-15 02:00:00 6.5 2 Noroeste 8 Norte 0 -- -- 88
2018-02-15 01:00:00 6.2 3 Norte 12 Norte 0 -- -- 87
2018-02-15 00:00:00 6.2 4 Norte 9 Nordeste 0 -- -- 87
2018-02-14 23:00:00 6.6 5 Norte 9 Noroeste 0 -- -- 85
2018-02-14 22:00:00 7.6 3 Oeste 6 Oeste 0 -- -- 78
2018-02-14 21:00:00 8.6 3 Sudoeste 6 Sudoeste 0 -- -- 72
2018-02-14 20:00:00 8.5 2 Oeste 8 Oeste 0 -- -- 72
2018-02-14 19:00:00 8.9 2 Oeste 9 Sudoeste 0 -- -- 69
2018-02-14 18:00:00 9.6 5 Sudoeste 11 Sudoeste 0 -- -- 63
2018-02-14 17:00:00 11.4 5 Sur 11 Sur 0 -- -- 56
2018-02-14 16:00:00 10.7 4 Sur 13 Sudoeste 0 -- -- 58
2018-02-14 15:00:00 10.9 4 Sudoeste 11 Sur 0 -- -- 56
2018-02-14 14:00:00 11.1 4 Sudoeste 14 Sur 0 -- -- 53
2018-02-14 13:00:00 11.5 3 Sur 11 Sur 0 -- -- 50
2018-02-14 12:00:00 13 3 Sudoeste 12 Oeste 0 -- -- 46
2018-02-14 11:00:00 12 4 Sur 10 Sudoeste 0 -- -- 45
2018-02-14 10:00:00 10.5 0 Calma 9 Norte 0 -- -- 59
2018-02-14 09:00:00 6.3 6 Norte 13 Norte 0 -- -- 70
2018-02-14 08:00:00 4.8 7 Norte 13 Norte 0 -- -- 74
2018-02-14 07:00:00 4.4 6 Norte 17 Norte 0 -- -- 71
2018-02-14 06:00:00 3.9 7 Noroeste 16 Norte 0 -- -- 72
2018-02-14 05:00:00 4.2 7 Norte 18 Norte 0 -- -- 66
2018-02-14 04:00:00 3.5 7 Norte 17 Norte 0 -- -- 68
2018-02-14 03:00:00 4.3 8 Norte 15 Norte 0 -- -- 65
2018-02-14 02:00:00 4.1 9 Norte 16 Norte 0 -- -- 68
2018-02-14 01:00:00 3.3 6 Norte 13 Sudoeste 0 -- -- 73
2018-02-14 00:00:00 3 2 Noroeste 10 Norte 0 -- -- 77
2018-02-13 23:00:00 3 0 Calma 10 Sur 0 -- -- 74
2018-02-13 22:00:00 4.7 0 Calma 13 Sudoeste 0 -- -- 63
2018-02-13 21:00:00 5.6 2 Sudoeste 24 Noroeste 0 -- -- 55
2018-02-13 20:00:00 5.8 2 Sudoeste 23 Noroeste 0 -- -- 51
2018-02-13 19:00:00 7.1 8 Noroeste 50 Noroeste 0 -- -- 47
2018-02-13 18:00:00 7.6 10 Oeste 25 Sudoeste 0 -- -- 44
2018-02-13 17:00:00 10.2 7 Sudoeste 45 Sudoeste 0 -- -- 39
2018-02-13 16:00:00 9.3 14 Sudoeste 36 Sudoeste 0 -- -- 39
2018-02-13 15:00:00 9.1 13 Sudoeste 41 Sudoeste 0 -- -- 39
2018-02-13 14:00:00 8.6 10 Sudoeste 34 Sudoeste 0 -- -- 41
2018-02-13 13:00:00 8 9 Oeste 27 Oeste 0 -- -- 44
2018-02-13 12:00:00 9.6 5 Sudoeste 20 Sudoeste 0 -- -- 37
2018-02-13 11:00:00 8.7 5 Oeste 16 Noroeste 0 -- -- 32
2018-02-13 10:00:00 6.3 7 Oeste 19 Noroeste 0 -- -- 44
2018-02-13 09:00:00 2.4 7 Norte 15 Norte 0 -- -- 74
2018-02-13 08:00:00 0.8 8 Norte 14 Norte 0 -- -- 82
2018-02-13 07:00:00 0.5 5 Norte 14 Norte 0 -- -- 89
2018-02-13 06:00:00 1.2 8 Norte 15 Norte 0 -- -- 87
2018-02-13 05:00:00 1.1 6 Norte 15 Noroeste 0 -- -- 90
2018-02-13 04:00:00 1.5 8 Norte 14 Norte 0 -- -- 91
2018-02-13 03:00:00 1.3 5 Noroeste 11 Noroeste 0.1 -- -- 92
2018-02-13 02:00:00 1.4 5 Noroeste 11 Norte 0 -- -- 92
2018-02-13 01:00:00 1.9 4 Noroeste 15 Noroeste 0 -- -- 92
2018-02-13 00:00:00 1.9 6 Oeste 14 Sudoeste 0 -- -- 92
2018-02-12 23:00:00 2.6 3 Oeste 8 Noroeste 0 -- -- 92
2018-02-12 22:00:00 2.8 3 Noroeste 12 Nordeste 1.4 -- -- 91
2018-02-12 21:00:00 3.3 0 Calma 6 Sudoeste 0.6 -- -- 91
2018-02-12 20:00:00 3.9 0 Calma 17 Norte 1.4 -- -- 88
2018-02-12 19:00:00 4.3 2 Nordeste 18 Norte 0 -- -- 84
2018-02-12 18:00:00 4.5 6 Norte 12 Nordeste 0.1 -- -- 91
2018-02-12 17:00:00 4.8 0 Calma 7 Nordeste 0.1 -- -- 91
2018-02-12 16:00:00 4.8 0 Calma 11 Norte 1.2 -- -- 90
2018-02-12 15:00:00 4.7 4 Norte 12 Norte 0.5 -- -- 90
2018-02-12 14:00:00 5.2 0 Calma 7 Nordeste 1.1 -- -- 91
2018-02-12 13:00:00 5.2 2 Este 10 Este 1.5 -- -- 91
2018-02-12 12:00:00 6 0 Calma 9 Nordeste 1.3 -- -- 90
2018-02-12 11:00:00 6.7 0 Calma 9 Sudoeste 1.5 -- -- 90
2018-02-12 10:00:00 8.8 0 Calma 6 Sur 0.4 -- -- 89
2018-02-12 09:00:00 8.8 0 Calma 8 Sur 0 -- -- 85
2018-02-12 08:00:00 8.5 3 Oeste 8 Sudoeste 0.1 -- -- 85
2018-02-12 07:00:00 8.8 3 Sudoeste 11 Sur 0.1 -- -- 87
2018-02-12 06:00:00 9.5 0 Calma 8 Sur 0 -- -- 79
2018-02-12 05:00:00 10.1 4 Sur 13 Oeste 0 -- -- 81
2018-02-12 04:00:00 10.1 4 Oeste 9 Oeste 0 -- -- 82
2018-02-12 03:00:00 9.4 2 Sudoeste 4 Sudoeste 0 -- -- 78
2018-02-12 02:00:00 9.7 2 Norte 8 Noroeste 0 -- -- 66
2018-02-12 01:00:00 9.7 2 Norte 14 Norte 0 -- -- 56
2018-02-12 00:00:00 9.2 3 Norte 12 Sudoeste 0 -- -- 59
2018-02-11 23:00:00 9.4 4 Norte 13 Norte 0 -- -- 62
2018-02-11 22:00:00 9.3 3 Norte 9 Norte 0 -- -- 65
2018-02-11 21:00:00 9.8 4 Norte 8 Norte 0 -- -- 64
2018-02-11 20:00:00 10.6 2 Oeste 9 Sudoeste 0 -- -- 67
2018-02-11 19:00:00 11.3 4 Sudoeste 14 Sudoeste 0 -- -- 68
2018-02-11 18:00:00 12 3 Sudoeste 12 Sur 0 -- -- 53
2018-02-11 17:00:00 12 12 Sudoeste 28 Sudoeste 0 -- -- 66
2018-02-11 16:00:00 13.1 10 Sudoeste 24 Sur 0 -- -- 55
2018-02-11 15:00:00 13.2 10 Sudoeste 24 Sudoeste 0 -- -- 45
2018-02-11 14:00:00 13.9 8 Sudoeste 23 Sudoeste 0 -- -- 33
2018-02-11 13:00:00 14.7 11 Sudoeste 25 Sur 0 -- -- 29
2018-02-11 12:00:00 14.3 8 Sudoeste 26 Sudoeste 0 -- -- 29
2018-02-11 11:00:00 12.3 0 Calma 5 Nordeste 0 -- -- 30
2018-02-11 10:00:00 8 0 Calma 14 Norte 0 -- -- 46
2018-02-11 09:00:00 4.8 8 Norte 15 Norte 0 -- -- 50
2018-02-11 08:00:00 3.5 6 Norte 13 Norte 0 -- -- 63
2018-02-11 07:00:00 3.1 5 Norte 12 Norte 0 -- -- 72
2018-02-11 06:00:00 2.9 4 Norte 7 Norte 0 -- -- 74
2018-02-11 05:00:00 3.7 4 Norte 14 Nordeste 0 -- -- 68
2018-02-11 04:00:00 5.2 6 Norte 13 Norte 0 -- -- 59
2018-02-11 03:00:00 4.3 4 Noroeste 13 Norte 0 -- -- 64
2018-02-11 02:00:00 3.8 5 Norte 11 Norte 0 -- -- 59
2018-02-11 01:00:00 3.9 7 Norte 10 Norte 0 -- -- 55
2018-02-11 00:00:00 3.4 6 Norte 13 Norte 0 -- -- 54
2018-02-10 23:00:00 3.5 5 Noroeste 9 Norte 0 -- -- 53
2018-02-10 22:00:00 4 5 Noroeste 11 Norte 0 -- -- 50
2018-02-10 21:00:00 4.4 6 Norte 15 Norte 0 -- -- 50
2018-02-10 20:00:00 4.2 5 Norte 9 Norte 0 -- -- 50
2018-02-10 19:00:00 4.8 5 Norte 11 Norte 0 -- -- 49
2018-02-10 18:00:00 6.8 0 Calma 11 Sudoeste 0 -- -- 38
2018-02-10 17:00:00 10.9 5 Sudoeste 17 Sudoeste 0 -- -- 29
2018-02-10 16:00:00 9.9 8 Sur 17 Sudoeste 0 -- -- 29
2018-02-10 15:00:00 10.9 5 Sur 14 Sudoeste 0 -- -- 28
2018-02-10 14:00:00 10.9 3 Este 18 Nordeste 0 -- -- 29
2018-02-10 13:00:00 10.5 5 Este 15 Sur 0 -- -- 32
2018-02-10 12:00:00 9.5 3 Sudeste 15 Sur 0 -- -- 33
2018-02-10 11:00:00 9.9 3 Este 11 Sudeste 0 -- -- 30
2018-02-10 10:00:00 8 0 Calma 14 Norte 0 -- -- 36
2018-02-10 09:00:00 6.3 5 Noroeste 20 Noroeste 0 -- -- 30
2018-02-10 08:00:00 5.8 9 Noroeste 24 Sudoeste 0 -- -- 30
2018-02-10 07:00:00 6.3 10 Oeste 27 Noroeste 0 -- -- 32
2018-02-10 06:00:00 3.2 5 Norte 15 Norte 0 -- -- 63
2018-02-10 05:00:00 4.7 8 Norte 20 Oeste 0 -- -- 56
2018-02-10 04:00:00 6.2 10 Sudoeste 18 Sudoeste 0 -- -- 54
2018-02-10 03:00:00 5.1 8 Norte 13 Norte 0 -- -- 65
2018-02-10 02:00:00 5.1 7 Norte 14 Norte 0 -- -- 65
2018-02-10 01:00:00 6 5 Norte 14 Norte 0 -- -- 62
2018-02-10 00:00:00 6.4 8 Norte 14 Norte 0 -- -- 58
2018-02-09 23:00:00 5.7 8 Norte 13 Norte 0 -- -- 61
2018-02-09 22:00:00 6.5 8 Norte 14 Norte 0 -- -- 58
2018-02-09 21:00:00 6.3 6 Norte 14 Norte 0 -- -- 58
2018-02-09 20:00:00 6.4 2 Oeste 9 Oeste 0 -- -- 63
2018-02-09 19:00:00 6.2 3 Noroeste 9 Norte 0 -- -- 69
2018-02-09 18:00:00 7.7 3 Sudoeste 15 Sur 0 -- -- 58
2018-02-09 17:00:00 8.6 6 Sur 21 Sur 0 -- -- 51
2018-02-09 16:00:00 9.3 8 Sudoeste 23 Sudoeste 0 -- -- 44
2018-02-09 15:00:00 9.8 6 Sur 16 Sur 0 -- -- 38
2018-02-09 14:00:00 10.7 7 Sur 17 Sur 0 -- -- 38
2018-02-09 13:00:00 9.2 7 Sur 20 Sur 0 -- -- 36
2018-02-09 12:00:00 9.6 4 Este 15 Nordeste 0 -- -- 40
2018-02-09 11:00:00 8.8 5 Sur 13 Sudeste 0 -- -- 48
2018-02-09 10:00:00 9 0 Calma 7 Norte 0 -- -- 47
2018-02-09 09:00:00 1.8 4 Norte 12 Norte 0 -- -- 75
2018-02-09 08:00:00 0.7 6 Norte 13 Norte 0 -- -- 76
2018-02-09 07:00:00 0.1 5 Norte 14 Norte 0 -- -- 72
2018-02-09 06:00:00 0.7 7 Norte 14 Norte 0 -- -- 68
2018-02-09 05:00:00 1.5 7 Norte 16 Norte 0 -- -- 63
2018-02-09 04:00:00 1.1 5 Noroeste 12 Norte 0 -- -- 64
2018-02-09 03:00:00 1.6 6 Norte 15 Norte 0 -- -- 64
2018-02-09 02:00:00 1.5 7 Norte 15 Norte 0 -- -- 64
2018-02-09 01:00:00 2 7 Norte 18 Norte 0 -- -- 63
2018-02-09 00:00:00 1.9 10 Norte 18 Norte 0 -- -- 68
2018-02-08 23:00:00 2.2 8 Norte 13 Norte 0 -- -- 71
2018-02-08 22:00:00 2.7 6 Norte 12 Norte 0 -- -- 69
2018-02-08 21:00:00 4.1 5 Norte 9 Norte 0 -- -- 70
2018-02-08 20:00:00 4.3 4 Norte 8 Norte 0 -- -- 71
2018-02-08 19:00:00 4.6 0 Calma 6 Este 0 -- -- 65
2018-02-08 18:00:00 4.9 0 Calma 11 Nordeste 0 -- -- 57
2018-02-08 17:00:00 6.2 2 Sudeste 9 Este 0 -- -- 58
2018-02-08 16:00:00 5.1 2 Este 13 Norte 0 -- -- 68
2018-02-08 15:00:00 4.2 5 Norte 15 Norte 0 -- -- 72
2018-02-08 14:00:00 5.9 4 Norte 13 Norte 0 -- -- 73
2018-02-08 13:00:00 4.5 8 Norte 14 Norte 0 -- -- 79
2018-02-08 12:00:00 4.6 4 Norte 12 Nordeste 0 -- -- 82
2018-02-08 11:00:00 3.7 7 Norte 15 Norte 0.1 -- -- 89
2018-02-08 10:00:00 3.3 8 Norte 21 Norte 0.7 -- -- 90
2018-02-08 09:00:00 3.5 2 Norte 10 Sudoeste 2.1 -- -- 89
2018-02-08 08:00:00 4.4 5 Noroeste 11 Norte 0.4 -- -- 86
2018-02-08 07:00:00 4.2 4 Norte 6 Norte 0 -- -- 80
2018-02-08 06:00:00 4.3 4 Norte 10 Norte 0 -- -- 66
2018-02-08 05:00:00 4 6 Norte 12 Nordeste 0 -- -- 63
2018-02-08 04:00:00 3.5 8 Norte 18 Norte 0 -- -- 62
2018-02-08 03:00:00 2.9 9 Norte 16 Norte 0 -- -- 65
2018-02-08 02:00:00 2.7 9 Norte 15 Norte 0 -- -- 66
2018-02-08 01:00:00 2.9 7 Norte 14 Nordeste 0 -- -- 65
2018-02-08 00:00:00 3.5 8 Norte 14 Norte 0 -- -- 67
2018-02-07 23:00:00 4.9 6 Norte 10 Norte 0 -- -- 58
2018-02-07 22:00:00 6.1 5 Norte 13 Norte 0 -- -- 52
2018-02-07 21:00:00 6.7 9 Norte 15 Norte 0 -- -- 52
2018-02-07 20:00:00 6.4 7 Norte 15 Norte 0 -- -- 54
2018-02-07 19:00:00 7 7 Norte 15 Norte 0 -- -- 58
2018-02-07 18:00:00 8.2 3 Oeste 7 Sudeste 0 -- -- 56
2018-02-07 17:00:00 9.3 0 Calma 22 Sur 0 -- -- 52
2018-02-07 16:00:00 9.3 4 Sur 12 Sur 0 -- -- 54
2018-02-07 15:00:00 10.3 2 Sudeste 13 Nordeste 0 -- -- 48
2018-02-07 14:00:00 10.6 3 Este 12 Este 0 -- -- 47
2018-02-07 13:00:00 9.8 3 Sur 10 Nordeste 0 -- -- 52
2018-02-07 12:00:00 9.4 4 Sur 11 Nordeste 0 -- -- 50
2018-02-07 11:00:00 9.5 0 Calma 8 Norte 0 -- -- 52
2018-02-07 10:00:00 6.5 6 Norte 11 Norte 0 -- -- 59
2018-02-07 09:00:00 5 5 Norte 11 Norte 0 -- -- 62
2018-02-07 08:00:00 5 4 Norte 8 Norte 0 -- -- 59
2018-02-07 07:00:00 5.4 3 Norte 15 Norte 0 -- -- 54
2018-02-07 06:00:00 5.4 7 Norte 13 Norte 0 -- -- 58
2018-02-07 05:00:00 5.7 5 Norte 10 Norte 0 -- -- 60
2018-02-07 04:00:00 6.3 2 Norte 9 Norte 0 -- -- 64
2018-02-07 03:00:00 6.2 5 Norte 9 Norte 0 -- -- 61
2018-02-07 02:00:00 6 3 Norte 10 Norte 0 -- -- 58
2018-02-07 01:00:00 5.9 5 Norte 11 Norte 0 -- -- 54
2018-02-07 00:00:00 6 4 Norte 13 Norte 0 -- -- 53
2018-02-06 23:00:00 6.2 6 Norte 14 Norte 0 -- -- 52
2018-02-06 22:00:00 6.8 3 Nordeste 8 Noroeste 0 -- -- 55
2018-02-06 21:00:00 7.3 0 Calma 15 Sudoeste 0 -- -- 52
2018-02-06 20:00:00 8 5 Noroeste 13 Norte 0 -- -- 51
2018-02-06 19:00:00 8.2 0 Calma 9 Norte 0 -- -- 53
2018-02-06 18:00:00 9 3 Norte 10 Nordeste 0 -- -- 50
2018-02-06 17:00:00 10.4 0 Calma 13 Sudeste 0 -- -- 46
2018-02-06 16:00:00 11.9 0 Calma 15 Nordeste 0 -- -- 40
2018-02-06 15:00:00 12.2 4 Norte 16 Norte 0 -- -- 38
2018-02-06 14:00:00 12.1 3 Norte 17 Norte 0 -- -- 42
2018-02-06 13:00:00 11.8 7 Norte 24 Norte 0 -- -- 39
2018-02-06 12:00:00 12.1 5 Norte 24 Nordeste 0 -- -- 39
2018-02-06 11:00:00 10.9 6 Norte 23 Norte 0 -- -- 47
2018-02-06 10:00:00 9.1 9 Norte 27 Norte 0 -- -- 55
2018-02-06 09:00:00 7.6 11 Norte 29 Norte 0 -- -- 66
2018-02-06 08:00:00 7.2 12 Norte 28 Nordeste 0 -- -- 74
2018-02-06 07:00:00 7.2 10 Norte 23 Noroeste 0 -- -- 79
2018-02-06 06:00:00 7 9 Norte 26 Noroeste 0 -- -- 81
2018-02-06 05:00:00 7 15 Norte 27 Norte 0.1 -- -- 81
2018-02-06 04:00:00 6.8 9 Norte 20 Norte 0.5 -- -- 91
2018-02-06 03:00:00 7.6 2 Norte 8 Sudeste 4.3 -- -- 92
2018-02-06 02:00:00 7.8 3 Noroeste 16 Norte 0.7 -- -- 92
2018-02-06 01:00:00 7.8 4 Norte 11 Norte 1.8 -- -- 92
2018-02-06 00:00:00 7.8 4 Norte 10 Sudoeste 1.5 -- -- 92
2018-02-05 23:00:00 8.1 4 Norte 12 Norte 1.5 -- -- 91
2018-02-05 22:00:00 8.1 0 Calma 14 Norte 0 -- -- 91
2018-02-05 21:00:00 7.9 6 Norte 12 Norte 0.2 -- -- 90
2018-02-05 20:00:00 7.9 5 Norte 15 Norte 0.3 -- -- 90
2018-02-05 19:00:00 8.2 5 Noroeste 15 Sudoeste 0.8 -- -- 90
2018-02-05 18:00:00 8.5 4 Norte 25 Sur 0.8 -- -- 87
2018-02-05 17:00:00 9.5 0 Calma 17 Oeste 0.2 -- -- 83
2018-02-05 16:00:00 11 0 Calma 9 Este 0 -- -- 75
2018-02-05 15:00:00 11.5 0 Calma 11 Norte 0 -- -- 73
2018-02-05 14:00:00 11.8 4 Norte 15 Norte 0.2 -- -- 73
2018-02-05 13:00:00 9.9 3 Nordeste 12 Este 0.1 -- -- 81
2018-02-05 12:00:00 9.1 3 Norte 13 Nordeste 0.2 -- -- 86
2018-02-05 11:00:00 8.6 4 Norte 20 Este 1.4 -- -- 91
2018-02-05 10:00:00 8.3 0 Calma 18 Norte 3.5 -- -- 92
2018-02-05 09:00:00 7.1 12 Norte 20 Norte 1.6 -- -- 92
2018-02-05 08:00:00 7.2 7 Norte 15 Noroeste 2.5 -- -- 92
2018-02-05 07:00:00 6.8 5 Norte 17 Norte 1.5 -- -- 92
2018-02-05 06:00:00 6.3 9 Norte 17 Norte 3.2 -- -- 92
2018-02-05 05:00:00 6.2 7 Norte 15 Norte 2.2 -- -- 92
2018-02-05 04:00:00 6 9 Norte 16 Norte 1.9 -- -- 92
2018-02-05 03:00:00 6.4 6 Norte 18 Norte 2.7 -- -- 92
2018-02-05 02:00:00 6.3 6 Norte 25 Sudoeste 1.9 -- -- 90
2018-02-05 01:00:00 6.2 13 Noroeste 30 Noroeste 0 -- -- 83
2018-02-05 00:00:00 5.5 15 Noroeste 37 Noroeste 1 -- -- 86
2018-02-04 23:00:00 5.6 15 Norte 34 Norte 4 -- -- 86
2018-02-04 22:00:00 5.9 13 Noroeste 35 Norte 2.4 -- -- 86
2018-02-04 21:00:00 6.1 14 Norte 33 Norte 0.9 -- -- 83
2018-02-04 20:00:00 7.2 13 Norte 32 Norte 0 -- -- 72
2018-02-04 19:00:00 7.3 12 Norte 29 Norte 0 -- -- 72
2018-02-04 18:00:00 7.7 15 Norte 33 Norte 0.1 -- -- 69
2018-02-04 17:00:00 7.9 12 Norte 30 Norte 0 -- -- 69
2018-02-04 16:00:00 8.5 7 Nordeste 24 Nordeste 0 -- -- 70
2018-02-04 15:00:00 8.7 8 Norte 20 Norte 0 -- -- 72
2018-02-04 14:00:00 8.5 8 Norte 21 Nordeste 0 -- -- 67
2018-02-04 13:00:00 8.1 4 Nordeste 21 Este 0.2 -- -- 72
2018-02-04 12:00:00 10.1 6 Norte 21 Nordeste 0 -- -- 59
2018-02-04 11:00:00 8.9 4 Norte 18 Norte 0 -- -- 68
2018-02-04 10:00:00 8.2 4 Nordeste 13 Norte 0 -- -- 68
2018-02-04 09:00:00 8.5 3 Nordeste 16 Nordeste 0 -- -- 63
2018-02-04 08:00:00 8.5 6 Norte 16 Norte 0 -- -- 66
2018-02-04 07:00:00 8.1 5 Norte 14 Norte 0 -- -- 68
2018-02-04 06:00:00 7.1 8 Norte 17 Norte 0 -- -- 68
2018-02-04 05:00:00 7.1 9 Norte 18 Norte 0 -- -- 63
2018-02-04 04:00:00 6.5 9 Norte 17 Norte 0 -- -- 63
2018-02-04 03:00:00 5.7 8 Norte 17 Norte 0 -- -- 68
2018-02-04 02:00:00 4.8 6 Noroeste 16 Norte 0 -- -- 76
2018-02-04 01:00:00 4.1 3 Oeste 7 Sudoeste 0 -- -- 78
2018-02-04 00:00:00 5.3 0 Calma 21 Sudoeste 0 -- -- 71
2018-02-03 23:00:00 5.8 3 Sudoeste 10 Sudoeste 0 -- -- 70
2018-02-03 22:00:00 5.8 0 Calma 6 Norte 0 -- -- 68
2018-02-03 21:00:00 5.6 2 Norte 9 Norte 0 -- -- 67
2018-02-03 20:00:00 5.8 3 Norte 9 Norte 0 -- -- 64
2018-02-03 19:00:00 6.7 0 Calma 15 Sudoeste 0 -- -- 56
2018-02-03 18:00:00 10.1 8 Sudoeste 28 Sudoeste 0 -- -- 40
2018-02-03 17:00:00 10.7 10 Oeste 29 Noroeste 0 -- -- 37
2018-02-03 16:00:00 11.8 6 Oeste 21 Sudoeste 0 -- -- 30
2018-02-03 15:00:00 12.9 7 Oeste 23 Sudoeste 0 -- -- 23
2018-02-03 14:00:00 14.1 4 Oeste 28 Sur 0 -- -- 24
2018-02-03 13:00:00 12.2 9 Sudoeste 26 Sudoeste 0 -- -- 27
2018-02-03 12:00:00 11.3 8 Oeste 25 Sudoeste 0 -- -- 27
2018-02-03 11:00:00 9.6 7 Oeste 22 Sudoeste 0 -- -- 29
2018-02-03 10:00:00 10.5 2 Oeste 13 Oeste 0 -- -- 40
2018-02-03 09:00:00 3.6 5 Norte 12 Noroeste 0 -- -- 64
2018-02-03 08:00:00 2.4 6 Norte 15 Norte 0 -- -- 67
2018-02-03 07:00:00 3.2 7 Norte 17 Norte 0 -- -- 54
2018-02-03 06:00:00 3.3 8 Norte 15 Noroeste 0 -- -- 53
2018-02-03 05:00:00 1.7 5 Norte 13 Norte 0 -- -- 57
2018-02-03 04:00:00 2.5 6 Noroeste 13 Norte 0 -- -- 52
2018-02-03 03:00:00 2.8 7 Norte 13 Norte 0 -- -- 58
2018-02-03 02:00:00 2.8 6 Norte 14 Norte 0 -- -- 56
2018-02-03 01:00:00 3.3 6 Norte 12 Norte 0 -- -- 49
2018-02-03 00:00:00 2.8 2 Oeste 7 Norte 0 -- -- 49
2018-02-02 23:00:00 2.9 0 Calma 16 Norte 0 -- -- 41
2018-02-02 22:00:00 4.7 8 Norte 14 Norte 0 -- -- 42
2018-02-02 21:00:00 3.5 8 Norte 15 Norte 0 -- -- 61
2018-02-02 20:00:00 4.6 8 Norte 15 Norte 0 -- -- 62
2018-02-02 19:00:00 5.1 5 Norte 10 Norte 0 -- -- 58
2018-02-02 18:00:00 6.9 0 Calma 9 Oeste 0 -- -- 57
2018-02-02 17:00:00 10.3 5 Sudoeste 21 Sudoeste 0 -- -- 38
2018-02-02 16:00:00 11.3 6 Oeste 16 Norte 0 -- -- 35
2018-02-02 15:00:00 11 3 Nordeste 17 Este 0 -- -- 38
2018-02-02 14:00:00 10.3 8 Sudoeste 17 Sur 0 -- -- 55
2018-02-02 13:00:00 9.5 4 Sur 10 Sudoeste 0 -- -- 58
2018-02-02 12:00:00 8.6 0 Calma 4 Noroeste 0 -- -- 62
2018-02-02 11:00:00 7.8 0 Calma 11 Norte 0 -- -- 68
2018-02-02 10:00:00 5.9 4 Norte 9 Norte 0 -- -- 76
2018-02-02 09:00:00 5 4 Norte 10 Norte 0 -- -- 78
2018-02-02 08:00:00 4.5 3 Norte 9 Norte 0 -- -- 80
2018-02-02 07:00:00 4.4 2 Oeste 10 Norte 0 -- -- 78
2018-02-02 06:00:00 5.3 3 Oeste 9 Sur 0 -- -- 74
2018-02-02 05:00:00 5.8 0 Calma 8 Nordeste 0 -- -- 70
2018-02-02 04:00:00 5.4 0 Calma 8 Noroeste 0 -- -- 74
2018-02-02 03:00:00 6 3 Sudoeste 14 Norte 0 -- -- 69
2018-02-02 02:00:00 7.1 8 Noroeste 19 Noroeste 0 -- -- 58
2018-02-02 01:00:00 6.9 6 Norte 23 Norte 0 -- -- 56
2018-02-02 00:00:00 6.9 10 Norte 27 Norte 0.2 -- -- 65
2018-02-01 23:00:00 6.5 6 Norte 35 Norte 0 -- -- 67
2018-02-01 22:00:00 6 8 Norte 25 Norte 0.1 -- -- 78
2018-02-01 21:00:00 5.6 10 Norte 35 Norte 0.2 -- -- 84
2018-02-01 20:00:00 5.2 0 Calma 16 Sudeste 1.1 -- -- 87
2018-02-01 19:00:00 5.4 2 Norte 9 Nordeste 0.3 -- -- 90
2018-02-01 18:00:00 5.7 5 Nordeste 27 Norte 0.1 -- -- 85
2018-02-01 17:00:00 6.3 8 Norte 27 Norte 0.8 -- -- 86
2018-02-01 16:00:00 8.6 5 Norte 13 Este 0.5 -- -- 86
2018-02-01 15:00:00 9.3 0 Calma 18 Sudeste 0.1 -- -- 81
2018-02-01 14:00:00 10.5 4 Norte 13 Nordeste 0 -- -- 65
2018-02-01 13:00:00 10.6 0 Calma 9 Norte 0 -- -- 59
2018-02-01 12:00:00 10.4 4 Norte 7 Norte 0 -- -- 58
2018-02-01 11:00:00 9.5 4 Nordeste 17 Norte 0 -- -- 61
2018-02-01 10:00:00 9.1 6 Norte 11 Norte 0 -- -- 61
2018-02-01 09:00:00 8.9 2 Sur 18 Sudoeste 0 -- -- 59
2018-02-01 08:00:00 9.5 6 Oeste 16 Sur 0 -- -- 55
2018-02-01 07:00:00 5.6 0 Calma 8 Oeste 0 -- -- 86
2018-02-01 06:00:00 4.9 0 Calma 9 Oeste 0 -- -- 88
2018-02-01 05:00:00 6.1 5 Sudoeste 13 Sudoeste 0 -- -- 90
2018-02-01 04:00:00 5.3 0 Calma 12 Sur 0 -- -- 88
2018-02-01 03:00:00 7.8 7 Sur 17 Sur 0 -- -- 82
2018-02-01 02:00:00 8.6 8 Sudoeste 20 Sudoeste 0 -- -- 81
2018-02-01 01:00:00 8.7 3 Oeste 14 Oeste 0 -- -- 73
2018-02-01 00:00:00 9.1 4 Oeste 17 Sur 0 -- -- 70
2018-01-31 23:00:00 7.3 2 Sudoeste 8 Sudoeste 0 -- -- 76
2018-01-31 22:00:00 8.7 3 Oeste 9 Oeste 0 -- -- 68
2018-01-31 21:00:00 8.7 3 Oeste 10 Oeste 0 -- -- 70
2018-01-31 20:00:00 8 2 Oeste 9 Oeste 0 -- -- 81
2018-01-31 19:00:00 9.2 2 Sudoeste 12 Sudoeste 0 -- -- 77
2018-01-31 18:00:00 11.4 7 Sur 18 Sudoeste 0 -- -- 71
2018-01-31 17:00:00 12.9 8 Sudoeste 30 Sudoeste 0 -- -- 60
2018-01-31 16:00:00 13.1 12 Sudoeste 37 Sudoeste 0 -- -- 63
2018-01-31 15:00:00 13.2 16 Sudoeste 33 Sudoeste 0 -- -- 59
2018-01-31 14:00:00 14.1 12 Sudoeste 28 Sur 0 -- -- 54
2018-01-31 13:00:00 14.5 10 Sudoeste 21 Sudoeste 0 -- -- 49
2018-01-31 12:00:00 15.6 7 Sudoeste 17 Sudoeste 0 -- -- 43
2018-01-31 11:00:00 14.2 4 Sur 12 Sur 0 -- -- 49
2018-01-31 10:00:00 11.4 0 Calma 8 Norte 0 -- -- 72
2018-01-31 09:00:00 6.1 3 Norte 8 Norte 0 -- -- 92
2018-01-31 08:00:00 5.8 5 Norte 8 Norte 0 -- -- 92
2018-01-31 07:00:00 6 5 Norte 8 Norte 0 -- -- 92
2018-01-31 06:00:00 6.1 5 Norte 9 Norte 0 -- -- 92
2018-01-31 05:00:00 6.7 4 Norte 11 Norte 0 -- -- 92
2018-01-31 04:00:00 6.8 5 Norte 10 Norte 0 -- -- 92
2018-01-31 03:00:00 6.9 6 Norte 12 Norte 0 -- -- 92
2018-01-31 02:00:00 7 5 Norte 10 Norte 0 -- -- 92
2018-01-31 01:00:00 6.9 5 Norte 10 Norte 0 -- -- 92
2018-01-31 00:00:00 6.9 5 Norte 9 Norte 0 -- -- 92
2018-01-30 23:00:00 7.2 4 Norte 8 Norte 0 -- -- 92
2018-01-30 22:00:00 7.2 4 Norte 8 Norte 0 -- -- 91
2018-01-30 21:00:00 7.4 4 Norte 7 Norte 0 -- -- 91
2018-01-30 20:00:00 7.9 3 Noroeste 8 Norte 0 -- -- 91
2018-01-30 19:00:00 8.4 2 Norte 8 Norte 0 -- -- 90
2018-01-30 18:00:00 10 0 Calma 5 Sudeste 0 -- -- 85
2018-01-30 17:00:00 11.8 3 Sur 7 Sur 0 -- -- 78
2018-01-30 16:00:00 12 5 Sur 12 Nordeste 0 -- -- 74
2018-01-30 15:00:00 12.4 5 Sur 13 Nordeste 0 -- -- 70
2018-01-30 14:00:00 13.5 4 Este 13 Sudeste 0 -- -- 63
2018-01-30 13:00:00 13.4 3 Este 12 Nordeste 0 -- -- 64
2018-01-30 12:00:00 14.4 3 Sudeste 10 Nordeste 0 -- -- 60
2018-01-30 11:00:00 14.3 0 Calma 7 Nordeste 0 -- -- 61
2018-01-30 10:00:00 12.7 0 Calma 7 Noroeste 0 -- -- 66
2018-01-30 09:00:00 6.9 4 Norte 8 Norte 0 -- -- 88
2018-01-30 08:00:00 5.3 4 Norte 8 Norte 0 -- -- 90
2018-01-30 07:00:00 5.4 4 Norte 9 Nordeste 0 -- -- 90
2018-01-30 06:00:00 5.4 3 Norte 7 Norte 0 -- -- 92
2018-01-30 05:00:00 5.8 3 Norte 8 Norte 0 -- -- 92
2018-01-30 04:00:00 5.9 3 Norte 8 Norte 0 -- -- 92
2018-01-30 03:00:00 6.3 3 Norte 8 Norte 0 -- -- 92
2018-01-30 02:00:00 6.7 3 Norte 8 Norte 0 -- -- 92
2018-01-30 01:00:00 7.1 4 Norte 9 Norte 0 -- -- 92
2018-01-30 00:00:00 7.3 0 Calma 10 Norte 0 -- -- 91
2018-01-29 23:00:00 7.3 5 Norte 9 Norte 0 -- -- 90
2018-01-29 22:00:00 7.7 4 Noroeste 9 Norte 0 -- -- 90
2018-01-29 21:00:00 8.1 6 Norte 9 Norte 0 -- -- 90
2018-01-29 20:00:00 8.5 5 Norte 9 Norte 0 -- -- 90
2018-01-29 19:00:00 9.3 4 Norte 6 Norte 0 -- -- 87
2018-01-29 18:00:00 10.7 0 Calma 9 Sur 0 -- -- 79
2018-01-29 17:00:00 12.5 4 Sur 16 Sur 0 -- -- 68
2018-01-29 16:00:00 13.2 5 Sur 21 Sudoeste 0 -- -- 61
2018-01-29 15:00:00 13.7 9 Sur 19 Sur 0 -- -- 55
2018-01-29 14:00:00 14.4 5 Sur 15 Sur 0 -- -- 54
2018-01-29 13:00:00 14.9 6 Sur 12 Sur 0 -- -- 53
2018-01-29 12:00:00 14.4 3 Este 11 Nordeste 0 -- -- 49
2018-01-29 11:00:00 14 3 Este 10 Sur 0 -- -- 51
2018-01-29 10:00:00 12.8 0 Calma 5 Norte 0 -- -- 62
2018-01-29 09:00:00 7.3 3 Norte 11 Norte 0 -- -- 85
2018-01-29 08:00:00 6.2 4 Norte 10 Norte 0 -- -- 88
2018-01-29 07:00:00 6.2 3 Noroeste 13 Norte 0 -- -- 86
2018-01-29 06:00:00 5.9 7 Norte 12 Norte 0 -- -- 90
2018-01-29 05:00:00 5.8 3 Norte 5 Norte 0 -- -- 91
2018-01-29 04:00:00 6.5 0 Calma 7 Norte 0 -- -- 89
2018-01-29 03:00:00 7 4 Norte 11 Norte 0 -- -- 86
2018-01-29 02:00:00 7.8 3 Norte 9 Norte 0 -- -- 86
2018-01-29 01:00:00 8.1 0 Calma 10 Sudoeste 0 -- -- 77
2018-01-29 00:00:00 8.4 3 Oeste 12 Oeste 0 -- -- 81
2018-01-28 23:00:00 8 2 Oeste 9 Sudoeste 0 -- -- 86
2018-01-28 22:00:00 7.6 4 Norte 8 Norte 0 -- -- 86
2018-01-28 21:00:00 8.1 4 Norte 9 Norte 0 -- -- 84
2018-01-28 20:00:00 8.3 4 Norte 9 Norte 0 -- -- 83
2018-01-28 19:00:00 8.8 3 Norte 8 Norte 0 -- -- 82
2018-01-28 18:00:00 10.3 0 Calma 10 Nordeste 0 -- -- 74
2018-01-28 17:00:00 12.5 3 Sur 13 Sudeste 0 -- -- 64
2018-01-28 16:00:00 13 2 Sudeste 10 Nordeste 0 -- -- 62
2018-01-28 15:00:00 13.5 0 Calma 13 Este 0 -- -- 58
2018-01-28 14:00:00 15.8 4 Este 14 Nordeste 0 -- -- 48
2018-01-28 13:00:00 15.9 3 Este 18 Nordeste 0 -- -- 45
2018-01-28 12:00:00 17 5 Norte 23 Norte 0 -- -- 35
2018-01-28 11:00:00 15.5 9 Norte 23 Nordeste 0 -- -- 38
2018-01-28 10:00:00 14 6 Norte 14 Norte 0 -- -- 44
2018-01-28 09:00:00 11.1 0 Calma 22 Norte 0 -- -- 49
2018-01-28 08:00:00 11.6 12 Norte 21 Norte 0 -- -- 45
2018-01-28 07:00:00 12 9 Norte 17 Norte 0 -- -- 45
2018-01-28 06:00:00 12.5 8 Norte 26 Norte 0 -- -- 44
2018-01-28 05:00:00 12.4 11 Norte 33 Nordeste 0 -- -- 45
2018-01-28 04:00:00 12.3 14 Norte 27 Norte 0 -- -- 45
2018-01-28 03:00:00 12.4 12 Norte 30 Norte 0 -- -- 45
2018-01-28 02:00:00 12.1 12 Norte 39 Norte 0 -- -- 44
2018-01-28 01:00:00 12.1 15 Norte 39 Norte 0 -- -- 44
2018-01-28 00:00:00 12.1 18 Norte 38 Norte 0 -- -- 44
2018-01-27 23:00:00 11.6 14 Norte 41 Norte 0 -- -- 45
2018-01-27 22:00:00 11.3 10 Norte 40 Nordeste 0 -- -- 46
2018-01-27 21:00:00 11.6 14 Norte 42 Nordeste 0 -- -- 46
2018-01-27 20:00:00 11 16 Norte 42 Norte 0 -- -- 48
2018-01-27 19:00:00 10.7 17 Norte 37 Norte 0 -- -- 48
2018-01-27 18:00:00 10.9 12 Norte 32 Nordeste 0 -- -- 46
2018-01-27 17:00:00 11.3 11 Norte 34 Norte 0 -- -- 44
2018-01-27 16:00:00 11.7 8 Norte 31 Norte 0 -- -- 44
2018-01-27 15:00:00 11.6 8 Norte 22 Norte 0 -- -- 45
2018-01-27 14:00:00 11.4 2 Este 12 Este 0 -- -- 50
2018-01-27 13:00:00 13.2 3 Este 13 Nordeste 0 -- -- 46
2018-01-27 12:00:00 13.2 3 Sudeste 15 Sur 0 -- -- 49
2018-01-27 11:00:00 11.2 0 Calma 6 Norte 0 -- -- 60
2018-01-27 10:00:00 8.4 3 Norte 9 Norte 0 -- -- 75
2018-01-27 09:00:00 6.4 5 Norte 9 Norte 0 -- -- 85
2018-01-27 08:00:00 5.6 2 Norte 12 Norte 0 -- -- 84
2018-01-27 07:00:00 5.7 5 Norte 10 Norte 0 -- -- 82
2018-01-27 06:00:00 6.7 6 Norte 19 Sudoeste 0 -- -- 81
2018-01-27 05:00:00 7.5 7 Sudoeste 14 Sudoeste 0 -- -- 77
2018-01-27 04:00:00 7 6 Sudoeste 10 Sudoeste 0.1 -- -- 82
2018-01-27 03:00:00 7.1 5 Sudoeste 11 Sudoeste 0 -- -- 81
2018-01-27 02:00:00 7.2 4 Oeste 14 Sudoeste 0 -- -- 78
2018-01-27 01:00:00 6.6 5 Sudoeste 12 Oeste 0 -- -- 86
2018-01-27 00:00:00 6.8 2 Noroeste 12 Noroeste 0.5 -- -- 86
2018-01-26 23:00:00 7.1 6 Sudoeste 15 Sudoeste 0.1 -- -- 81
2018-01-26 22:00:00 6.7 4 Oeste 17 Oeste 0.1 -- -- 90
2018-01-26 21:00:00 6.9 0 Calma 6 Noroeste 0 -- -- 92
2018-01-26 20:00:00 7.1 3 Oeste 7 Norte 0 -- -- 92
2018-01-26 19:00:00 7.4 2 Oeste 7 Sudoeste 0.1 -- -- 92
2018-01-26 18:00:00 7.9 0 Calma 6 Sudoeste 0.4 -- -- 91
2018-01-26 17:00:00 8 0 Calma 8 Sudoeste 0.4 -- -- 88
2018-01-26 16:00:00 8.3 5 Sur 10 Sur 0.1 -- -- 85
2018-01-26 15:00:00 8.8 5 Sur 12 Sur 0 -- -- 84
2018-01-26 14:00:00 8.3 2 Sur 10 Sudeste 0 -- -- 87
2018-01-26 13:00:00 7.9 0 Calma 8 Nordeste 0.7 -- -- 90
2018-01-26 12:00:00 -- -- -- -- -- -- -- -- --
2018-01-26 11:00:00 -- -- -- -- -- -- -- -- --
2018-01-26 10:00:00 -- -- -- -- -- -- -- -- --
2018-01-26 09:00:00 -- -- -- -- -- -- -- -- --
2018-01-26 08:00:00 -- -- -- -- -- -- -- -- --
2018-01-26 07:00:00 11.7 0 Calma 23 Este 0 -- -- 76
2018-01-26 06:00:00 11.4 2 Este 21 Sudeste 0.1 -- -- 84
2018-01-26 05:00:00 12.4 0 Calma 14 Este 0 -- -- 77
2018-01-26 04:00:00 12.4 4 Nordeste 9 Nordeste 0 -- -- 81
2018-01-26 03:00:00 12 0 Calma 8 Norte 0 -- -- 88
2018-01-26 02:00:00 12.1 5 Norte 9 Norte 0 -- -- 89
2018-01-26 01:00:00 12.1 4 Norte 10 Norte 0 -- -- 90
2018-01-26 00:00:00 12.3 0 Calma 5 Noroeste 0 -- -- 89
2018-01-25 23:00:00 12.6 0 Calma 4 Oeste 0 -- -- 85
2018-01-25 22:00:00 12.9 3 Sudoeste 8 Sudoeste 0 -- -- 82
2018-01-25 21:00:00 13.1 4 Sudoeste 11 Sudoeste 0 -- -- 81
2018-01-25 20:00:00 13.1 5 Sudoeste 15 Sur 0 -- -- 81
2018-01-25 19:00:00 13.1 3 Sur 16 Sudoeste 0 -- -- 82
2018-01-25 18:00:00 13 7 Sudoeste 17 Sudoeste 0 -- -- 81
2018-01-25 17:00:00 13.5 9 Sudoeste 20 Sudoeste 0 -- -- 77
2018-01-25 16:00:00 14 8 Sur 19 Sur 0 -- -- 75
2018-01-25 15:00:00 14 9 Sudoeste 24 Sudoeste 0 -- -- 74
2018-01-25 14:00:00 14.2 9 Sudoeste 24 Sudoeste 0 -- -- 72
2018-01-25 13:00:00 14.4 7 Sudoeste 24 Sudoeste 0 -- -- 65
2018-01-25 12:00:00 14.2 7 Oeste 21 Oeste 0 -- -- 63
2018-01-25 11:00:00 13.5 6 Oeste 21 Sudoeste 0 -- -- 66
2018-01-25 10:00:00 13 5 Sudoeste 20 Oeste 0 -- -- 69
2018-01-25 09:00:00 12.7 4 Sudoeste 14 Sudoeste 0 -- -- 69
2018-01-25 08:00:00 12.4 5 Sudoeste 22 Oeste 0 -- -- 71
2018-01-25 07:00:00 12.5 6 Oeste 20 Oeste 0 -- -- 68
2018-01-25 06:00:00 12 5 Oeste 20 Sudoeste 0 -- -- 72
2018-01-25 05:00:00 12 4 Oeste 17 Oeste 0 -- -- 75
2018-01-25 04:00:00 11.6 4 Oeste 11 Oeste 0 -- -- 80
2018-01-25 03:00:00 11.4 2 Oeste 13 Oeste 0 -- -- 90
2018-01-25 02:00:00 10.3 0 Calma 5 Sudoeste 0 -- -- 92
2018-01-25 01:00:00 10.2 4 Sudoeste 10 Sudoeste 0 -- -- 92
2018-01-25 00:00:00 9 5 Norte 8 Norte 0 -- -- 92
2018-01-24 23:00:00 10 4 Norte 8 Norte 0 -- -- 92
2018-01-24 22:00:00 11 3 Norte 7 Norte 0 -- -- 90
2018-01-24 21:00:00 13.3 0 Calma 8 Oeste 0 -- -- 90
2018-01-24 20:00:00 13.5 0 Calma 8 Sudoeste 0 -- -- 90
2018-01-24 19:00:00 14 4 Sudoeste 16 Sudoeste 0 -- -- 88
2018-01-24 18:00:00 13.8 5 Sudoeste 13 Sudoeste 0 -- -- 88
2018-01-24 17:00:00 14.2 3 Sur 18 Sur 0 -- -- 82
2018-01-24 16:00:00 14.9 5 Sudoeste 19 Sudoeste 0 -- -- 75
2018-01-24 15:00:00 14.9 8 Sur 16 Sur 0 -- -- 68
2018-01-24 14:00:00 16.6 6 Sur 14 Sur 0 -- -- 59
2018-01-24 13:00:00 17.1 3 Sudeste 12 Nordeste 0 -- -- 58
2018-01-24 12:00:00 16.8 4 Sur 14 Sudoeste 0 -- -- 54
2018-01-24 11:00:00 17.5 2 Sudeste 9 Sudoeste 0 -- -- 55
2018-01-24 10:00:00 15.6 0 Calma 11 Norte 0 -- -- 62
2018-01-24 09:00:00 10.1 5 Norte 13 Norte 0 -- -- 80
2018-01-24 08:00:00 8.9 7 Norte 12 Norte 0 -- -- 84
2018-01-24 07:00:00 8.8 3 Norte 8 Norte 0 -- -- 85
2018-01-24 06:00:00 7.9 2 Noroeste 6 Norte 0 -- -- 85
2018-01-24 05:00:00 7.5 0 Calma 8 Nordeste 0 -- -- 82
2018-01-24 04:00:00 9.3 4 Norte 10 Norte 0 -- -- 72
2018-01-24 03:00:00 9.9 4 Noroeste 10 Norte 0 -- -- 70
2018-01-24 02:00:00 10.1 5 Noroeste 11 Norte 0 -- -- 71
2018-01-24 01:00:00 10.3 4 Noroeste 10 Norte 0 -- -- 72
2018-01-24 00:00:00 10.6 6 Norte 10 Norte 0 -- -- 72
2018-01-23 23:00:00 10.3 4 Noroeste 10 Norte 0 -- -- 73
2018-01-23 22:00:00 10.2 5 Noroeste 10 Noroeste 0 -- -- 82
2018-01-23 21:00:00 9.5 2 Oeste 6 Norte 0 -- -- 92
2018-01-23 20:00:00 9.9 0 Calma 6 Norte 0 -- -- 92
2018-01-23 19:00:00 10.1 0 Calma 6 Oeste 0 -- -- 91
2018-01-23 18:00:00 11.6 0 Calma 5 Sudoeste 0 -- -- 87
2018-01-23 17:00:00 13.6 0 Calma 8 Sur 0 -- -- 81
2018-01-23 16:00:00 14.1 4 Sur 10 Sudeste 0 -- -- 76
2018-01-23 15:00:00 14.8 3 Sudeste 13 Sur 0 -- -- 71
2018-01-23 14:00:00 15.6 3 Sur 14 Nordeste 0 -- -- 70
2018-01-23 13:00:00 15.9 4 Sur 15 Nordeste 0 -- -- 64
2018-01-23 12:00:00 16.7 5 Sur 13 Sudoeste 0 -- -- 54
2018-01-23 11:00:00 17.4 3 Este 9 Nordeste 0 -- -- 49
2018-01-23 10:00:00 15 0 Calma 8 Norte 0 -- -- 64
2018-01-23 09:00:00 9.9 5 Norte 10 Norte 0 -- -- 85
2018-01-23 08:00:00 9.3 4 Noroeste 14 Norte 0 -- -- 86
2018-01-23 07:00:00 8.9 3 Noroeste 11 Norte 0 -- -- 90
2018-01-23 06:00:00 8.7 3 Norte 9 Norte 0 -- -- 90
2018-01-23 05:00:00 8.6 0 Calma 6 Norte 0 -- -- 88
2018-01-23 04:00:00 10.6 3 Norte 12 Norte 0 -- -- 78
2018-01-23 03:00:00 9.4 0 Calma 9 Nordeste 0 -- -- 87
2018-01-23 02:00:00 11.1 4 Norte 13 Nordeste 0 -- -- 79
2018-01-23 01:00:00 10.7 3 Noroeste 9 Sudoeste 0 -- -- 80
2018-01-23 00:00:00 11.4 5 Norte 10 Sudoeste 0 -- -- 78
2018-01-22 23:00:00 11.3 6 Norte 15 Norte 0 -- -- 79
2018-01-22 22:00:00 11.4 7 Norte 17 Norte 0 -- -- 81
2018-01-22 21:00:00 11.2 6 Norte 10 Norte 0 -- -- 81
2018-01-22 20:00:00 11.6 4 Norte 10 Norte 0 -- -- 78
2018-01-22 19:00:00 11.6 3 Norte 8 Nordeste 0 -- -- 75
2018-01-22 18:00:00 13 2 Sudoeste 6 Sur 0 -- -- 66
2018-01-22 17:00:00 15.4 0 Calma 8 Este 0 -- -- 55
2018-01-22 16:00:00 16.8 2 Sudeste 8 Nordeste 0 -- -- 48
2018-01-22 15:00:00 17.3 0 Calma 12 Nordeste 0 -- -- 45
2018-01-22 14:00:00 18.4 2 Este 13 Sudeste 0 -- -- 45
2018-01-22 13:00:00 18.1 3 Sudeste 11 Nordeste 0 -- -- 49
2018-01-22 12:00:00 17.6 2 Este 11 Sudeste 0 -- -- 55
2018-01-22 11:00:00 17.3 3 Este 10 Nordeste 0 -- -- 57
2018-01-22 10:00:00 16 0 Calma 5 Este 0 -- -- 66
2018-01-22 09:00:00 11.3 0 Calma 17 Norte 0 -- -- 81
2018-01-22 08:00:00 10.6 8 Norte 15 Norte 0 -- -- 86
2018-01-22 07:00:00 10.7 5 Norte 11 Noroeste 0 -- -- 90
2018-01-22 06:00:00 10.6 4 Norte 13 Nordeste 0 -- -- 88
2018-01-22 05:00:00 10.9 9 Norte 15 Norte 0 -- -- 85
2018-01-22 04:00:00 10.3 8 Norte 23 Norte 0 -- -- 82
2018-01-22 03:00:00 10.7 4 Norte 13 Norte 0 -- -- 82
2018-01-22 02:00:00 10.3 2 Norte 9 Norte 0 -- -- 86
2018-01-22 01:00:00 11.4 0 Calma 12 Norte 0 -- -- 80
2018-01-22 00:00:00 11.7 4 Norte 9 Norte 0 -- -- 81